sensor_id;sensor_type;location;lat;lon;timestamp;P1;durP1;ratioP1;P2;durP2;ratioP2
3601;SDS011;1815;50.950;6.920;2023-05-10T00:00:52;5.63;;;5.13;;
3601;SDS011;1815;50.950;6.920;2023-05-10T00:03:18;5.17;;;4.77;;
3601;SDS011;1815;50.950;6.920;2023-05-10T00:05:43;5.43;;;4.93;;
3601;SDS011;1815;50.950;6.920;2023-05-10T00:08:09;5.63;;;5.13;;
3601;SDS011;1815;50.950;6.920;2023-05-10T00:10:35;5.23;;;4.73;;
3601;SDS011;1815;50.950;6.920;2023-05-10T00:13:02;7.00;;;6.30;;
3601;SDS011;1815;50.950;6.920;2023-05-10T00:15:28;6.13;;;5.63;;
3601;SDS011;1815;50.950;6.920;2023-05-10T00:17:55;6.40;;;5.80;;
3601;SDS011;1815;50.950;6.920;2023-05-10T00:20:21;7.07;;;6.37;;
3601;SDS011;1815;50.950;6.920;2023-05-10T00:22:47;8.80;;;6.50;;
3601;SDS011;1815;50.950;6.920;2023-05-10T00:25:13;6.70;;;6.10;;
3601;SDS011;1815;50.950;6.920;2023-05-10T00:27:39;6.47;;;5.87;;
3601;SDS011;1815;50.950;6.920;2023-05-10T00:30:04;6.20;;;5.67;;
3601;SDS011;1815;50.950;6.920;2023-05-10T00:32:31;6.67;;;6.03;;
3601;SDS011;1815;50.950;6.920;2023-05-10T00:34:57;7.83;;;7.13;;
3601;SDS011;1815;50.950;6.920;2023-05-10T00:37:23;9.13;;;6.40;;
3601;SDS011;1815;50.950;6.920;2023-05-10T00:39:48;6.90;;;6.20;;
3601;SDS011;1815;50.950;6.920;2023-05-10T00:42:14;7.53;;;6.50;;
3601;SDS011;1815;50.950;6.920;2023-05-10T00:44:40;7.27;;;6.57;;
3601;SDS011;1815;50.950;6.920;2023-05-10T00:47:06;7.23;;;6.60;;
3601;SDS011;1815;50.950;6.920;2023-05-10T00:49:32;7.33;;;6.63;;
3601;SDS011;1815;50.950;6.920;2023-05-10T00:51:58;8.10;;;7.40;;
3601;SDS011;1815;50.950;6.920;2023-05-10T00:54:25;11.07;;;7.17;;
3601;SDS011;1815;50.950;6.920;2023-05-10T00:56:51;8.83;;;7.70;;
3601;SDS011;1815;50.950;6.920;2023-05-10T00:59:16;8.00;;;7.20;;
3601;SDS011;1815;50.950;6.920;2023-05-10T01:01:46;7.70;;;7.00;;
3601;SDS011;1815;50.950;6.920;2023-05-10T01:04:12;7.40;;;6.70;;
3601;SDS011;1815;50.950;6.920;2023-05-10T01:06:42;7.47;;;6.73;;
3601;SDS011;1815;50.950;6.920;2023-05-10T01:09:08;7.37;;;6.67;;
3601;SDS011;1815;50.950;6.920;2023-05-10T01:11:34;7.90;;;7.10;;
3601;SDS011;1815;50.950;6.920;2023-05-10T01:14:01;7.70;;;7.00;;
3601;SDS011;1815;50.950;6.920;2023-05-10T01:16:28;9.13;;;7.20;;
3601;SDS011;1815;50.950;6.920;2023-05-10T01:18:57;8.10;;;7.40;;
3601;SDS011;1815;50.950;6.920;2023-05-10T01:21:29;9.17;;;8.17;;
3601;SDS011;1815;50.950;6.920;2023-05-10T01:27:14;8.50;;;7.13;;
3601;SDS011;1815;50.950;6.920;2023-05-10T01:32:52;7.20;;;6.50;;
3601;SDS011;1815;50.950;6.920;2023-05-10T01:35:42;7.63;;;6.90;;
3601;SDS011;1815;50.950;6.920;2023-05-10T01:41:25;7.27;;;6.57;;
3601;SDS011;1815;50.950;6.920;2023-05-10T01:44:14;8.43;;;7.47;;
3601;SDS011;1815;50.950;6.920;2023-05-10T01:46:43;7.20;;;6.27;;
3601;SDS011;1815;50.950;6.920;2023-05-10T01:49:21;10.77;;;7.63;;
3601;SDS011;1815;50.950;6.920;2023-05-10T01:51:52;8.50;;;6.53;;
3601;SDS011;1815;50.950;6.920;2023-05-10T01:54:22;7.20;;;6.60;;
3601;SDS011;1815;50.950;6.920;2023-05-10T01:56:55;9.33;;;7.87;;
3601;SDS011;1815;50.950;6.920;2023-05-10T01:59:26;7.33;;;6.63;;
3601;SDS011;1815;50.950;6.920;2023-05-10T02:01:56;8.60;;;7.80;;
3601;SDS011;1815;50.950;6.920;2023-05-10T02:04:24;6.87;;;6.20;;
3601;SDS011;1815;50.950;6.920;2023-05-10T02:06:51;8.00;;;7.17;;
3601;SDS011;1815;50.950;6.920;2023-05-10T02:09:19;7.87;;;7.07;;
3601;SDS011;1815;50.950;6.920;2023-05-10T02:11:47;7.77;;;6.97;;
3601;SDS011;1815;50.950;6.920;2023-05-10T02:14:13;7.27;;;6.60;;
3601;SDS011;1815;50.950;6.920;2023-05-10T02:16:41;8.13;;;7.30;;
3601;SDS011;1815;50.950;6.920;2023-05-10T02:19:09;7.80;;;7.00;;
3601;SDS011;1815;50.950;6.920;2023-05-10T02:21:37;7.63;;;6.13;;
3601;SDS011;1815;50.950;6.920;2023-05-10T02:24:05;8.57;;;7.77;;
3601;SDS011;1815;50.950;6.920;2023-05-10T02:26:31;9.30;;;6.30;;
3601;SDS011;1815;50.950;6.920;2023-05-10T02:28:59;7.37;;;6.67;;
3601;SDS011;1815;50.950;6.920;2023-05-10T02:31:28;8.07;;;6.67;;
3601;SDS011;1815;50.950;6.920;2023-05-10T02:33:56;5.70;;;5.10;;
3601;SDS011;1815;50.950;6.920;2023-05-10T02:36:23;5.80;;;5.20;;
3601;SDS011;1815;50.950;6.920;2023-05-10T02:38:52;5.87;;;5.20;;
3601;SDS011;1815;50.950;6.920;2023-05-10T02:41:19;8.40;;;4.87;;
3601;SDS011;1815;50.950;6.920;2023-05-10T02:43:49;4.93;;;3.90;;
3601;SDS011;1815;50.950;6.920;2023-05-10T02:46:17;4.67;;;3.50;;
3601;SDS011;1815;50.950;6.920;2023-05-10T02:48:43;5.40;;;3.67;;
3601;SDS011;1815;50.950;6.920;2023-05-10T02:51:09;5.30;;;4.23;;
3601;SDS011;1815;50.950;6.920;2023-05-10T02:53:39;4.97;;;4.47;;
3601;SDS011;1815;50.950;6.920;2023-05-10T02:56:15;3.90;;;3.60;;
3601;SDS011;1815;50.950;6.920;2023-05-10T02:58:46;6.40;;;3.70;;
3601;SDS011;1815;50.950;6.920;2023-05-10T03:01:12;4.87;;;4.13;;
3601;SDS011;1815;50.950;6.920;2023-05-10T03:03:38;6.53;;;4.00;;
3601;SDS011;1815;50.950;6.920;2023-05-10T03:06:03;4.90;;;3.90;;
3601;SDS011;1815;50.950;6.920;2023-05-10T03:08:29;5.67;;;3.87;;
3601;SDS011;1815;50.950;6.920;2023-05-10T03:11:14;4.30;;;3.80;;
3601;SDS011;1815;50.950;6.920;2023-05-10T03:16:32;3.70;;;2.73;;
3601;SDS011;1815;50.950;6.920;2023-05-10T03:22:37;4.70;;;4.00;;
3601;SDS011;1815;50.950;6.920;2023-05-10T03:25:10;3.80;;;3.47;;
3601;SDS011;1815;50.950;6.920;2023-05-10T03:27:39;5.33;;;3.50;;
3601;SDS011;1815;50.950;6.920;2023-05-10T03:30:08;5.30;;;3.63;;
3601;SDS011;1815;50.950;6.920;2023-05-10T03:32:35;4.20;;;3.47;;
3601;SDS011;1815;50.950;6.920;2023-05-10T03:35:08;5.03;;;3.97;;
3601;SDS011;1815;50.950;6.920;2023-05-10T03:37:36;4.93;;;4.43;;
3601;SDS011;1815;50.950;6.920;2023-05-10T03:40:02;6.23;;;4.37;;
3601;SDS011;1815;50.950;6.920;2023-05-10T03:42:30;4.57;;;4.10;;
3601;SDS011;1815;50.950;6.920;2023-05-10T03:44:56;6.67;;;4.10;;
3601;SDS011;1815;50.950;6.920;2023-05-10T03:47:22;6.10;;;4.40;;
3601;SDS011;1815;50.950;6.920;2023-05-10T03:49:48;6.20;;;4.33;;
3601;SDS011;1815;50.950;6.920;2023-05-10T03:52:14;11.17;;;6.30;;
3601;SDS011;1815;50.950;6.920;2023-05-10T03:54:39;8.03;;;6.27;;
3601;SDS011;1815;50.950;6.920;2023-05-10T03:57:05;7.63;;;5.73;;
3601;SDS011;1815;50.950;6.920;2023-05-10T03:59:31;6.53;;;5.90;;
3601;SDS011;1815;50.950;6.920;2023-05-10T04:01:57;8.23;;;6.70;;
3601;SDS011;1815;50.950;6.920;2023-05-10T04:04:23;8.00;;;7.13;;
3601;SDS011;1815;50.950;6.920;2023-05-10T04:06:49;7.50;;;6.80;;
3601;SDS011;1815;50.950;6.920;2023-05-10T04:09:15;8.00;;;7.20;;
3601;SDS011;1815;50.950;6.920;2023-05-10T04:11:42;8.27;;;7.03;;
3601;SDS011;1815;50.950;6.920;2023-05-10T04:14:08;8.37;;;7.57;;
3601;SDS011;1815;50.950;6.920;2023-05-10T04:16:33;9.70;;;8.60;;
3601;SDS011;1815;50.950;6.920;2023-05-10T04:18:59;11.87;;;9.60;;
3601;SDS011;1815;50.950;6.920;2023-05-10T04:21:26;10.83;;;9.20;;
3601;SDS011;1815;50.950;6.920;2023-05-10T04:23:51;10.10;;;9.00;;
3601;SDS011;1815;50.950;6.920;2023-05-10T04:26:17;9.90;;;8.43;;
3601;SDS011;1815;50.950;6.920;2023-05-10T04:28:43;11.13;;;9.20;;
3601;SDS011;1815;50.950;6.920;2023-05-10T04:31:09;10.27;;;9.20;;
3601;SDS011;1815;50.950;6.920;2023-05-10T04:33:35;10.23;;;9.23;;
3601;SDS011;1815;50.950;6.920;2023-05-10T04:36:01;10.63;;;9.17;;
3601;SDS011;1815;50.950;6.920;2023-05-10T04:38:28;11.33;;;9.20;;
3601;SDS011;1815;50.950;6.920;2023-05-10T04:40:54;10.17;;;8.40;;
3601;SDS011;1815;50.950;6.920;2023-05-10T04:43:20;12.47;;;9.10;;
3601;SDS011;1815;50.950;6.920;2023-05-10T04:45:45;11.30;;;8.20;;
3601;SDS011;1815;50.950;6.920;2023-05-10T04:48:11;16.53;;;9.90;;
3601;SDS011;1815;50.950;6.920;2023-05-10T04:50:37;11.57;;;8.97;;
3601;SDS011;1815;50.950;6.920;2023-05-10T04:53:04;13.20;;;9.00;;
3601;SDS011;1815;50.950;6.920;2023-05-10T04:55:30;11.57;;;9.40;;
3601;SDS011;1815;50.950;6.920;2023-05-10T04:57:56;9.23;;;8.20;;
3601;SDS011;1815;50.950;6.920;2023-05-10T05:00:22;10.03;;;8.73;;
3601;SDS011;1815;50.950;6.920;2023-05-10T05:02:48;11.63;;;8.10;;
3601;SDS011;1815;50.950;6.920;2023-05-10T05:05:14;10.87;;;9.73;;
3601;SDS011;1815;50.950;6.920;2023-05-10T05:07:39;10.40;;;9.37;;
3601;SDS011;1815;50.950;6.920;2023-05-10T05:10:06;11.00;;;8.90;;
3601;SDS011;1815;50.950;6.920;2023-05-10T05:12:32;14.67;;;9.40;;
3601;SDS011;1815;50.950;6.920;2023-05-10T05:14:58;12.50;;;10.10;;
3601;SDS011;1815;50.950;6.920;2023-05-10T05:17:24;11.57;;;9.60;;
3601;SDS011;1815;50.950;6.920;2023-05-10T05:19:49;13.17;;;9.77;;
3601;SDS011;1815;50.950;6.920;2023-05-10T05:22:15;13.10;;;9.67;;
3601;SDS011;1815;50.950;6.920;2023-05-10T05:24:41;14.37;;;10.27;;
3601;SDS011;1815;50.950;6.920;2023-05-10T05:27:06;11.47;;;9.63;;
3601;SDS011;1815;50.950;6.920;2023-05-10T05:29:32;13.53;;;9.70;;
3601;SDS011;1815;50.950;6.920;2023-05-10T05:31:58;9.10;;;7.60;;
3601;SDS011;1815;50.950;6.920;2023-05-10T05:34:24;13.83;;;9.17;;
3601;SDS011;1815;50.950;6.920;2023-05-10T05:36:51;8.20;;;7.40;;
3601;SDS011;1815;50.950;6.920;2023-05-10T05:39:16;12.33;;;8.77;;
3601;SDS011;1815;50.950;6.920;2023-05-10T05:41:42;12.67;;;8.03;;
3601;SDS011;1815;50.950;6.920;2023-05-10T05:44:08;12.30;;;8.23;;
3601;SDS011;1815;50.950;6.920;2023-05-10T05:46:35;9.37;;;8.37;;
3601;SDS011;1815;50.950;6.920;2023-05-10T05:49:00;11.90;;;8.00;;
3601;SDS011;1815;50.950;6.920;2023-05-10T05:51:26;10.30;;;8.07;;
3601;SDS011;1815;50.950;6.920;2023-05-10T05:53:52;13.73;;;8.17;;
3601;SDS011;1815;50.950;6.920;2023-05-10T05:56:18;10.87;;;7.90;;
3601;SDS011;1815;50.950;6.920;2023-05-10T05:58:49;13.70;;;7.53;;
3601;SDS011;1815;50.950;6.920;2023-05-10T06:01:15;10.50;;;8.00;;
3601;SDS011;1815;50.950;6.920;2023-05-10T06:03:41;10.93;;;7.37;;
3601;SDS011;1815;50.950;6.920;2023-05-10T06:06:07;11.40;;;7.33;;
3601;SDS011;1815;50.950;6.920;2023-05-10T06:08:33;9.80;;;7.50;;
3601;SDS011;1815;50.950;6.920;2023-05-10T06:11:00;11.80;;;8.80;;
3601;SDS011;1815;50.950;6.920;2023-05-10T06:13:26;13.10;;;7.87;;
3601;SDS011;1815;50.950;6.920;2023-05-10T06:15:59;10.57;;;7.63;;
3601;SDS011;1815;50.950;6.920;2023-05-10T06:18:26;10.10;;;7.80;;
3601;SDS011;1815;50.950;6.920;2023-05-10T06:20:52;11.80;;;8.33;;
3601;SDS011;1815;50.950;6.920;2023-05-10T06:23:17;10.07;;;7.50;;
3601;SDS011;1815;50.950;6.920;2023-05-10T06:25:43;9.63;;;7.50;;
3601;SDS011;1815;50.950;6.920;2023-05-10T06:28:09;10.37;;;7.90;;
3601;SDS011;1815;50.950;6.920;2023-05-10T06:30:35;10.47;;;7.80;;
3601;SDS011;1815;50.950;6.920;2023-05-10T06:33:01;10.47;;;8.70;;
3601;SDS011;1815;50.950;6.920;2023-05-10T06:35:28;10.57;;;8.60;;
3601;SDS011;1815;50.950;6.920;2023-05-10T06:37:54;11.23;;;8.27;;
3601;SDS011;1815;50.950;6.920;2023-05-10T06:40:19;10.87;;;7.80;;
3601;SDS011;1815;50.950;6.920;2023-05-10T06:42:46;18.63;;;7.90;;
3601;SDS011;1815;50.950;6.920;2023-05-10T06:45:12;10.70;;;7.70;;
3601;SDS011;1815;50.950;6.920;2023-05-10T06:47:39;8.70;;;7.80;;
3601;SDS011;1815;50.950;6.920;2023-05-10T06:50:06;24.37;;;21.77;;
3601;SDS011;1815;50.950;6.920;2023-05-10T06:52:33;13.73;;;11.27;;
3601;SDS011;1815;50.950;6.920;2023-05-10T06:54:58;11.33;;;9.17;;
3601;SDS011;1815;50.950;6.920;2023-05-10T06:57:26;11.03;;;8.30;;
3601;SDS011;1815;50.950;6.920;2023-05-10T06:59:52;12.57;;;9.60;;
3601;SDS011;1815;50.950;6.920;2023-05-10T07:02:18;13.57;;;9.63;;
3601;SDS011;1815;50.950;6.920;2023-05-10T07:04:43;10.73;;;8.30;;
3601;SDS011;1815;50.950;6.920;2023-05-10T07:07:09;10.10;;;7.90;;
3601;SDS011;1815;50.950;6.920;2023-05-10T07:09:35;12.43;;;8.97;;
3601;SDS011;1815;50.950;6.920;2023-05-10T07:12:00;10.10;;;8.27;;
3601;SDS011;1815;50.950;6.920;2023-05-10T07:14:27;12.70;;;9.00;;
3601;SDS011;1815;50.950;6.920;2023-05-10T07:16:53;11.03;;;8.63;;
3601;SDS011;1815;50.950;6.920;2023-05-10T07:19:18;10.77;;;9.20;;
3601;SDS011;1815;50.950;6.920;2023-05-10T07:21:44;10.40;;;7.80;;
3601;SDS011;1815;50.950;6.920;2023-05-10T07:24:10;10.17;;;8.80;;
3601;SDS011;1815;50.950;6.920;2023-05-10T07:26:36;11.63;;;8.70;;
3601;SDS011;1815;50.950;6.920;2023-05-10T07:29:02;10.63;;;8.30;;
3601;SDS011;1815;50.950;6.920;2023-05-10T07:31:28;10.00;;;8.33;;
3601;SDS011;1815;50.950;6.920;2023-05-10T07:33:53;9.83;;;7.40;;
3601;SDS011;1815;50.950;6.920;2023-05-10T07:36:19;12.37;;;7.80;;
3601;SDS011;1815;50.950;6.920;2023-05-10T07:38:45;13.67;;;8.57;;
3601;SDS011;1815;50.950;6.920;2023-05-10T07:41:11;12.17;;;8.77;;
3601;SDS011;1815;50.950;6.920;2023-05-10T07:43:37;10.10;;;8.77;;
3601;SDS011;1815;50.950;6.920;2023-05-10T07:46:03;11.37;;;9.03;;
3601;SDS011;1815;50.950;6.920;2023-05-10T07:48:29;9.83;;;7.70;;
3601;SDS011;1815;50.950;6.920;2023-05-10T07:50:54;12.33;;;8.00;;
3601;SDS011;1815;50.950;6.920;2023-05-10T07:53:20;11.40;;;7.57;;
3601;SDS011;1815;50.950;6.920;2023-05-10T07:55:58;10.20;;;7.60;;
3601;SDS011;1815;50.950;6.920;2023-05-10T07:58:24;10.80;;;8.07;;
3601;SDS011;1815;50.950;6.920;2023-05-10T08:00:51;9.37;;;6.73;;
3601;SDS011;1815;50.950;6.920;2023-05-10T08:03:17;10.20;;;8.80;;
3601;SDS011;1815;50.950;6.920;2023-05-10T08:05:42;14.17;;;7.90;;
3601;SDS011;1815;50.950;6.920;2023-05-10T08:08:08;11.90;;;7.60;;
3601;SDS011;1815;50.950;6.920;2023-05-10T08:10:34;10.63;;;8.70;;
3601;SDS011;1815;50.950;6.920;2023-05-10T08:13:00;12.13;;;8.77;;
3601;SDS011;1815;50.950;6.920;2023-05-10T08:15:26;11.17;;;7.90;;
3601;SDS011;1815;50.950;6.920;2023-05-10T08:17:52;8.17;;;7.20;;
3601;SDS011;1815;50.950;6.920;2023-05-10T08:20:17;11.87;;;7.83;;
3601;SDS011;1815;50.950;6.920;2023-05-10T08:22:47;12.30;;;8.30;;
3601;SDS011;1815;50.950;6.920;2023-05-10T08:25:13;10.47;;;7.90;;
3601;SDS011;1815;50.950;6.920;2023-05-10T08:27:38;12.30;;;7.30;;
3601;SDS011;1815;50.950;6.920;2023-05-10T08:30:04;8.10;;;6.23;;
3601;SDS011;1815;50.950;6.920;2023-05-10T08:32:31;7.63;;;5.50;;
3601;SDS011;1815;50.950;6.920;2023-05-10T08:34:56;6.47;;;5.87;;
3601;SDS011;1815;50.950;6.920;2023-05-10T08:37:23;8.90;;;5.73;;
3601;SDS011;1815;50.950;6.920;2023-05-10T08:39:49;8.30;;;6.23;;
3601;SDS011;1815;50.950;6.920;2023-05-10T08:42:15;8.77;;;6.03;;
3601;SDS011;1815;50.950;6.920;2023-05-10T08:44:45;6.60;;;5.87;;
3601;SDS011;1815;50.950;6.920;2023-05-10T08:47:13;6.83;;;5.83;;
3601;SDS011;1815;50.950;6.920;2023-05-10T08:49:43;9.07;;;6.23;;
3601;SDS011;1815;50.950;6.920;2023-05-10T08:52:12;7.23;;;5.80;;
3601;SDS011;1815;50.950;6.920;2023-05-10T08:54:41;7.57;;;6.27;;
3601;SDS011;1815;50.950;6.920;2023-05-10T08:57:07;7.93;;;5.07;;
3601;SDS011;1815;50.950;6.920;2023-05-10T08:59:33;7.70;;;5.97;;
3601;SDS011;1815;50.950;6.920;2023-05-10T09:01:58;7.87;;;6.50;;
3601;SDS011;1815;50.950;6.920;2023-05-10T09:04:26;7.63;;;5.67;;
3601;SDS011;1815;50.950;6.920;2023-05-10T09:06:53;9.40;;;6.77;;
3601;SDS011;1815;50.950;6.920;2023-05-10T09:09:19;7.10;;;6.40;;
3601;SDS011;1815;50.950;6.920;2023-05-10T09:11:46;9.33;;;6.60;;
3601;SDS011;1815;50.950;6.920;2023-05-10T09:14:12;8.87;;;7.23;;
3601;SDS011;1815;50.950;6.920;2023-05-10T09:16:39;8.70;;;6.43;;
3601;SDS011;1815;50.950;6.920;2023-05-10T09:19:05;6.97;;;6.30;;
3601;SDS011;1815;50.950;6.920;2023-05-10T09:21:32;8.00;;;7.10;;
3601;SDS011;1815;50.950;6.920;2023-05-10T09:24:07;7.67;;;6.97;;
3601;SDS011;1815;50.950;6.920;2023-05-10T09:26:34;9.90;;;7.83;;
3601;SDS011;1815;50.950;6.920;2023-05-10T09:29:01;10.80;;;9.10;;
3601;SDS011;1815;50.950;6.920;2023-05-10T09:31:43;12.10;;;10.70;;
3601;SDS011;1815;50.950;6.920;2023-05-10T09:34:19;13.43;;;9.40;;
3601;SDS011;1815;50.950;6.920;2023-05-10T09:36:54;13.67;;;10.87;;
3601;SDS011;1815;50.950;6.920;2023-05-10T09:39:29;11.00;;;9.63;;
3601;SDS011;1815;50.950;6.920;2023-05-10T09:41:57;10.87;;;8.20;;
3601;SDS011;1815;50.950;6.920;2023-05-10T09:44:25;11.60;;;8.57;;
3601;SDS011;1815;50.950;6.920;2023-05-10T09:46:51;9.07;;;7.30;;
3601;SDS011;1815;50.950;6.920;2023-05-10T09:49:18;9.30;;;8.23;;
3601;SDS011;1815;50.950;6.920;2023-05-10T09:51:45;9.07;;;7.50;;
3601;SDS011;1815;50.950;6.920;2023-05-10T09:54:14;11.03;;;8.30;;
3601;SDS011;1815;50.950;6.920;2023-05-10T09:56:41;9.20;;;6.77;;
3601;SDS011;1815;50.950;6.920;2023-05-10T09:59:08;11.10;;;8.27;;
3601;SDS011;1815;50.950;6.920;2023-05-10T10:01:35;9.47;;;7.30;;
3601;SDS011;1815;50.950;6.920;2023-05-10T10:04:05;10.93;;;7.93;;
3601;SDS011;1815;50.950;6.920;2023-05-10T10:06:39;9.57;;;6.80;;
3601;SDS011;1815;50.950;6.920;2023-05-10T10:09:08;9.63;;;7.60;;
3601;SDS011;1815;50.950;6.920;2023-05-10T10:11:35;10.07;;;7.33;;
3601;SDS011;1815;50.950;6.920;2023-05-10T10:14:02;7.70;;;6.90;;
3601;SDS011;1815;50.950;6.920;2023-05-10T10:16:28;8.00;;;6.63;;
3601;SDS011;1815;50.950;6.920;2023-05-10T10:18:55;6.60;;;5.70;;
3601;SDS011;1815;50.950;6.920;2023-05-10T10:21:21;9.20;;;6.87;;
3601;SDS011;1815;50.950;6.920;2023-05-10T10:23:48;7.97;;;6.80;;
3601;SDS011;1815;50.950;6.920;2023-05-10T10:26:14;10.03;;;7.17;;
3601;SDS011;1815;50.950;6.920;2023-05-10T10:28:51;7.27;;;6.47;;
3601;SDS011;1815;50.950;6.920;2023-05-10T10:31:41;6.93;;;6.13;;
3601;SDS011;1815;50.950;6.920;2023-05-10T10:34:18;8.37;;;5.97;;
3601;SDS011;1815;50.950;6.920;2023-05-10T10:36:53;8.13;;;7.03;;
3601;SDS011;1815;50.950;6.920;2023-05-10T10:39:20;7.47;;;5.87;;
3601;SDS011;1815;50.950;6.920;2023-05-10T10:41:50;5.43;;;4.67;;
3601;SDS011;1815;50.950;6.920;2023-05-10T10:47:02;5.30;;;4.20;;
3601;SDS011;1815;50.950;6.920;2023-05-10T10:49:31;5.33;;;4.70;;
3601;SDS011;1815;50.950;6.920;2023-05-10T10:54:53;6.63;;;4.90;;
3601;SDS011;1815;50.950;6.920;2023-05-10T10:57:26;6.13;;;5.37;;
3601;SDS011;1815;50.950;6.920;2023-05-10T11:05:37;8.50;;;6.77;;
3601;SDS011;1815;50.950;6.920;2023-05-10T11:10:50;6.30;;;4.97;;
3601;SDS011;1815;50.950;6.920;2023-05-10T11:13:17;4.03;;;3.63;;
3601;SDS011;1815;50.950;6.920;2023-05-10T11:16:10;5.83;;;4.70;;
3601;SDS011;1815;50.950;6.920;2023-05-10T11:18:37;3.23;;;2.63;;
3601;SDS011;1815;50.950;6.920;2023-05-10T11:21:03;4.40;;;3.07;;
3601;SDS011;1815;50.950;6.920;2023-05-10T11:26:06;2.80;;;2.47;;
3601;SDS011;1815;50.950;6.920;2023-05-10T11:28:34;2.50;;;2.17;;
3601;SDS011;1815;50.950;6.920;2023-05-10T11:31:06;2.53;;;2.00;;
3601;SDS011;1815;50.950;6.920;2023-05-10T11:33:41;3.00;;;2.43;;
3601;SDS011;1815;50.950;6.920;2023-05-10T11:36:13;3.03;;;2.00;;
3601;SDS011;1815;50.950;6.920;2023-05-10T11:38:40;3.00;;;2.07;;
3601;SDS011;1815;50.950;6.920;2023-05-10T11:41:10;3.27;;;2.30;;
3601;SDS011;1815;50.950;6.920;2023-05-10T11:43:40;3.10;;;2.00;;
3601;SDS011;1815;50.950;6.920;2023-05-10T11:46:07;3.23;;;2.20;;
3601;SDS011;1815;50.950;6.920;2023-05-10T11:48:35;2.00;;;1.50;;
3601;SDS011;1815;50.950;6.920;2023-05-10T11:51:01;3.50;;;1.90;;
3601;SDS011;1815;50.950;6.920;2023-05-10T11:53:31;4.17;;;2.00;;
3601;SDS011;1815;50.950;6.920;2023-05-10T11:56:05;4.47;;;2.43;;
3601;SDS011;1815;50.950;6.920;2023-05-10T11:58:35;3.47;;;1.80;;
3601;SDS011;1815;50.950;6.920;2023-05-10T12:01:02;2.60;;;1.60;;
3601;SDS011;1815;50.950;6.920;2023-05-10T12:03:29;3.30;;;1.30;;
3601;SDS011;1815;50.950;6.920;2023-05-10T12:05:56;2.10;;;1.10;;
3601;SDS011;1815;50.950;6.920;2023-05-10T12:08:23;2.20;;;1.17;;
3601;SDS011;1815;50.950;6.920;2023-05-10T12:10:53;2.33;;;1.27;;
3601;SDS011;1815;50.950;6.920;2023-05-10T12:13:29;1.80;;;1.10;;
3601;SDS011;1815;50.950;6.920;2023-05-10T12:15:57;1.90;;;1.07;;
3601;SDS011;1815;50.950;6.920;2023-05-10T12:18:23;2.67;;;1.53;;
3601;SDS011;1815;50.950;6.920;2023-05-10T12:20:53;2.17;;;1.27;;
3601;SDS011;1815;50.950;6.920;2023-05-10T12:23:19;2.07;;;1.37;;
3601;SDS011;1815;50.950;6.920;2023-05-10T12:25:45;2.03;;;1.50;;
3601;SDS011;1815;50.950;6.920;2023-05-10T12:28:11;3.63;;;2.77;;
3601;SDS011;1815;50.950;6.920;2023-05-10T12:30:37;2.30;;;1.97;;
3601;SDS011;1815;50.950;6.920;2023-05-10T12:33:07;2.73;;;2.07;;
3601;SDS011;1815;50.950;6.920;2023-05-10T12:35:51;1.80;;;1.37;;
3601;SDS011;1815;50.950;6.920;2023-05-10T12:38:24;2.37;;;1.50;;
3601;SDS011;1815;50.950;6.920;2023-05-10T12:40:57;2.63;;;1.50;;
3601;SDS011;1815;50.950;6.920;2023-05-10T12:43:27;2.93;;;1.47;;
3601;SDS011;1815;50.950;6.920;2023-05-10T12:45:53;3.47;;;2.20;;
3601;SDS011;1815;50.950;6.920;2023-05-10T12:48:19;4.37;;;2.37;;
3601;SDS011;1815;50.950;6.920;2023-05-10T12:50:45;2.60;;;1.30;;
3601;SDS011;1815;50.950;6.920;2023-05-10T12:53:12;2.60;;;1.90;;
3601;SDS011;1815;50.950;6.920;2023-05-10T12:55:41;2.70;;;1.70;;
3601;SDS011;1815;50.950;6.920;2023-05-10T12:58:08;3.07;;;1.90;;
3601;SDS011;1815;50.950;6.920;2023-05-10T13:00:34;2.37;;;1.20;;
3601;SDS011;1815;50.950;6.920;2023-05-10T13:03:00;1.73;;;1.03;;
3601;SDS011;1815;50.950;6.920;2023-05-10T13:05:26;1.90;;;1.03;;
3601;SDS011;1815;50.950;6.920;2023-05-10T13:07:51;1.60;;;0.90;;
3601;SDS011;1815;50.950;6.920;2023-05-10T13:10:17;2.47;;;0.90;;
3601;SDS011;1815;50.950;6.920;2023-05-10T13:12:43;1.80;;;1.00;;
3601;SDS011;1815;50.950;6.920;2023-05-10T13:15:09;4.00;;;1.87;;
3601;SDS011;1815;50.950;6.920;2023-05-10T13:17:34;2.87;;;1.40;;
3601;SDS011;1815;50.950;6.920;2023-05-10T13:20:00;1.70;;;0.93;;
3601;SDS011;1815;50.950;6.920;2023-05-10T13:22:26;1.80;;;0.90;;
3601;SDS011;1815;50.950;6.920;2023-05-10T13:24:52;1.50;;;0.90;;
3601;SDS011;1815;50.950;6.920;2023-05-10T13:27:17;2.70;;;0.70;;
3601;SDS011;1815;50.950;6.920;2023-05-10T13:29:43;1.67;;;0.80;;
3601;SDS011;1815;50.950;6.920;2023-05-10T13:32:09;1.40;;;0.70;;
3601;SDS011;1815;50.950;6.920;2023-05-10T13:34:35;2.20;;;0.90;;
3601;SDS011;1815;50.950;6.920;2023-05-10T13:37:00;2.63;;;0.93;;
3601;SDS011;1815;50.950;6.920;2023-05-10T13:39:26;2.53;;;0.80;;
3601;SDS011;1815;50.950;6.920;2023-05-10T13:41:52;2.37;;;0.80;;
3601;SDS011;1815;50.950;6.920;2023-05-10T13:44:19;2.70;;;0.90;;
3601;SDS011;1815;50.950;6.920;2023-05-10T13:46:45;1.97;;;1.00;;
3601;SDS011;1815;50.950;6.920;2023-05-10T13:49:11;1.87;;;0.80;;
3601;SDS011;1815;50.950;6.920;2023-05-10T13:51:37;2.43;;;1.00;;
3601;SDS011;1815;50.950;6.920;2023-05-10T13:54:03;1.43;;;0.70;;
3601;SDS011;1815;50.950;6.920;2023-05-10T13:56:28;2.10;;;0.90;;
3601;SDS011;1815;50.950;6.920;2023-05-10T13:58:55;1.60;;;0.87;;
3601;SDS011;1815;50.950;6.920;2023-05-10T14:01:23;2.43;;;1.10;;
3601;SDS011;1815;50.950;6.920;2023-05-10T14:03:49;2.73;;;1.93;;
3601;SDS011;1815;50.950;6.920;2023-05-10T14:06:14;2.33;;;1.63;;
3601;SDS011;1815;50.950;6.920;2023-05-10T14:08:40;1.50;;;0.90;;
3601;SDS011;1815;50.950;6.920;2023-05-10T14:11:06;2.10;;;0.90;;
3601;SDS011;1815;50.950;6.920;2023-05-10T14:13:31;2.10;;;1.00;;
3601;SDS011;1815;50.950;6.920;2023-05-10T14:15:57;3.50;;;1.60;;
3601;SDS011;1815;50.950;6.920;2023-05-10T14:18:26;3.63;;;1.33;;
3601;SDS011;1815;50.950;6.920;2023-05-10T14:20:52;1.70;;;0.70;;
3601;SDS011;1815;50.950;6.920;2023-05-10T14:23:18;2.43;;;1.00;;
3601;SDS011;1815;50.950;6.920;2023-05-10T14:25:49;1.60;;;0.60;;
3601;SDS011;1815;50.950;6.920;2023-05-10T14:28:15;1.30;;;0.50;;
3601;SDS011;1815;50.950;6.920;2023-05-10T14:30:42;2.07;;;0.60;;
3601;SDS011;1815;50.950;6.920;2023-05-10T14:33:08;2.37;;;1.00;;
3601;SDS011;1815;50.950;6.920;2023-05-10T14:35:34;1.83;;;0.97;;
3601;SDS011;1815;50.950;6.920;2023-05-10T14:38:00;2.53;;;1.30;;
3601;SDS011;1815;50.950;6.920;2023-05-10T14:40:26;1.80;;;1.00;;
3601;SDS011;1815;50.950;6.920;2023-05-10T14:42:52;2.63;;;1.33;;
3601;SDS011;1815;50.950;6.920;2023-05-10T14:45:18;3.30;;;2.10;;
3601;SDS011;1815;50.950;6.920;2023-05-10T14:47:44;5.40;;;3.10;;
3601;SDS011;1815;50.950;6.920;2023-05-10T14:50:10;2.00;;;1.50;;
3601;SDS011;1815;50.950;6.920;2023-05-10T14:52:35;3.10;;;1.20;;
3601;SDS011;1815;50.950;6.920;2023-05-10T14:55:01;3.97;;;2.67;;
3601;SDS011;1815;50.950;6.920;2023-05-10T14:57:27;3.20;;;2.07;;
3601;SDS011;1815;50.950;6.920;2023-05-10T14:59:55;2.13;;;1.00;;
3601;SDS011;1815;50.950;6.920;2023-05-10T15:02:21;1.80;;;1.00;;
3601;SDS011;1815;50.950;6.920;2023-05-10T15:04:47;1.43;;;0.70;;
3601;SDS011;1815;50.950;6.920;2023-05-10T15:07:13;2.80;;;0.80;;
3601;SDS011;1815;50.950;6.920;2023-05-10T15:09:41;4.43;;;1.00;;
3601;SDS011;1815;50.950;6.920;2023-05-10T15:12:07;3.47;;;0.80;;
3601;SDS011;1815;50.950;6.920;2023-05-10T15:14:32;2.40;;;0.80;;
3601;SDS011;1815;50.950;6.920;2023-05-10T15:16:58;1.40;;;0.70;;
3601;SDS011;1815;50.950;6.920;2023-05-10T15:19:24;1.70;;;0.70;;
3601;SDS011;1815;50.950;6.920;2023-05-10T15:21:50;1.50;;;0.80;;
3601;SDS011;1815;50.950;6.920;2023-05-10T15:24:16;2.90;;;0.90;;
3601;SDS011;1815;50.950;6.920;2023-05-10T15:26:42;2.57;;;0.90;;
3601;SDS011;1815;50.950;6.920;2023-05-10T15:29:08;2.07;;;0.90;;
3601;SDS011;1815;50.950;6.920;2023-05-10T15:31:34;1.87;;;1.27;;
3601;SDS011;1815;50.950;6.920;2023-05-10T15:34:00;4.80;;;2.50;;
3601;SDS011;1815;50.950;6.920;2023-05-10T15:36:26;5.00;;;3.70;;
3601;SDS011;1815;50.950;6.920;2023-05-10T15:38:53;4.43;;;2.70;;
3601;SDS011;1815;50.950;6.920;2023-05-10T15:41:19;2.77;;;1.87;;
3601;SDS011;1815;50.950;6.920;2023-05-10T15:43:45;1.63;;;0.90;;